createdAt,value
2018-12-30T00:01:12.548Z,5.27
2018-12-30T00:03:43.458Z,5.57
2018-12-30T00:06:14.272Z,4.37
2018-12-30T00:08:45.234Z,4.63
2018-12-30T00:11:15.878Z,5.27
2018-12-30T00:13:46.396Z,5.07
2018-12-30T00:16:17.054Z,4.73
2018-12-30T00:18:47.871Z,5.93
2018-12-30T00:21:18.140Z,5.33
2018-12-30T00:23:49.030Z,6.40
2018-12-30T00:26:19.333Z,5.10
2018-12-30T00:28:49.933Z,5.53
2018-12-30T00:31:20.749Z,5.40
2018-12-30T00:33:51.759Z,5.87
2018-12-30T00:36:22.041Z,5.77
2018-12-30T00:38:52.909Z,5.23
2018-12-30T00:41:23.574Z,6.30
2018-12-30T00:43:54.172Z,4.87
2018-12-30T00:46:24.723Z,5.13
2018-12-30T00:48:55.356Z,6.30
2018-12-30T00:51:26.011Z,6.60
2018-12-30T00:53:56.394Z,6.20
2018-12-30T00:56:26.650Z,6.43
2018-12-30T00:58:57.194Z,5.97
2018-12-30T01:01:27.829Z,6.73
2018-12-30T01:03:58.224Z,6.70
2018-12-30T01:06:28.561Z,6.03
2018-12-30T01:08:59.229Z,5.57
2018-12-30T01:11:29.671Z,5.47
2018-12-30T01:14:00.231Z,5.43
2018-12-30T01:16:30.831Z,5.93
2018-12-30T01:19:01.601Z,5.97
2018-12-30T01:21:32.161Z,6.40
2018-12-30T01:24:02.623Z,8.73
2018-12-30T01:26:32.925Z,7.60
2018-12-30T01:29:03.716Z,7.43
2018-12-30T01:31:34.419Z,6.57
2018-12-30T01:34:05.054Z,7.03
2018-12-30T01:36:36.764Z,7.27
2018-12-30T01:39:08.768Z,6.80
2018-12-30T01:41:39.055Z,7.40
2018-12-30T01:44:09.939Z,7.17
2018-12-30T01:46:40.374Z,7.07
2018-12-30T01:49:11.248Z,7.20
2018-12-30T01:51:41.521Z,7.47
2018-12-30T01:54:12.057Z,7.07
2018-12-30T01:56:42.409Z,7.63
2018-12-30T01:59:13.346Z,7.20
2018-12-30T02:01:43.618Z,7.90
2018-12-30T02:04:14.423Z,8.10
2018-12-30T02:06:45.121Z,7.10
2018-12-30T02:09:15.672Z,7.67
2018-12-30T02:11:46.245Z,7.67
2018-12-30T02:14:17.141Z,7.20
2018-12-30T02:16:48.615Z,8.30
2018-12-30T02:19:19.294Z,6.70
2018-12-30T02:21:49.591Z,6.50
2018-12-30T02:24:20.212Z,6.80
2018-12-30T02:26:50.601Z,6.70
2018-12-30T02:29:21.493Z,7.10
2018-12-30T02:31:52.114Z,6.63
2018-12-30T02:34:23.000Z,5.90
2018-12-30T02:36:53.277Z,5.80
2018-12-30T02:39:24.107Z,5.40
2018-12-30T02:41:54.805Z,5.87
2018-12-30T02:44:25.355Z,5.83
2018-12-30T02:46:55.706Z,5.77
2018-12-30T02:49:26.672Z,5.60
2018-12-30T02:51:57.024Z,5.03
2018-12-30T02:54:27.567Z,5.77
2018-12-30T02:56:58.335Z,5.40
2018-12-30T02:59:29.029Z,5.70
2018-12-30T03:01:59.585Z,5.30
2018-12-30T03:04:30.382Z,5.13
2018-12-30T03:07:00.796Z,5.63
2018-12-30T03:09:31.360Z,5.07
2018-12-30T03:12:02.017Z,5.40
2018-12-30T03:14:32.754Z,5.10
2018-12-30T03:17:03.035Z,5.00
2018-12-30T03:19:33.878Z,4.93
2018-12-30T03:22:04.340Z,5.10
2018-12-30T03:24:34.778Z,4.70
2018-12-30T03:27:05.389Z,5.27
2018-12-30T03:29:36.306Z,5.37
2018-12-30T03:32:06.889Z,5.27
2018-12-30T03:34:37.724Z,5.20
2018-12-30T03:37:08.096Z,5.37
2018-12-30T03:39:38.812Z,6.43
2018-12-30T03:42:09.308Z,6.00
2018-12-30T03:44:40.015Z,5.67
2018-12-30T03:47:10.370Z,7.10
2018-12-30T03:49:41.167Z,6.30
2018-12-30T03:52:11.453Z,6.40
2018-12-30T03:54:41.967Z,6.37
2018-12-30T03:57:12.441Z,6.67
2018-12-30T03:59:43.600Z,6.77
2018-12-30T04:02:14.460Z,6.40
2018-12-30T04:04:44.972Z,6.10
2018-12-30T04:07:15.324Z,7.00
2018-12-30T04:09:46.356Z,6.53
2018-12-30T04:12:16.641Z,7.07
2018-12-30T04:14:47.284Z,7.13
2018-12-30T04:17:17.862Z,6.37
2018-12-30T04:19:48.395Z,5.37
2018-12-30T04:22:18.667Z,6.77
2018-12-30T04:24:49.288Z,5.93
2018-12-30T04:27:19.821Z,7.50
2018-12-30T04:29:50.564Z,7.37
2018-12-30T04:32:20.878Z,8.17
2018-12-30T04:34:51.443Z,8.10
2018-12-30T04:37:22.091Z,7.50
2018-12-30T04:39:52.397Z,7.50
2018-12-30T04:42:22.877Z,5.97
2018-12-30T04:44:53.459Z,6.20
2018-12-30T04:47:23.962Z,6.13
2018-12-30T04:49:54.244Z,6.13
2018-12-30T04:52:25.874Z,6.10
2018-12-30T04:54:57.066Z,6.83
2018-12-30T04:57:27.332Z,6.90
2018-12-30T04:59:57.991Z,6.47
2018-12-30T05:02:29.250Z,6.40
2018-12-30T05:05:00.178Z,6.97
2018-12-30T05:07:30.653Z,7.67
2018-12-30T05:10:01.205Z,6.83
2018-12-30T05:12:31.939Z,8.57
2018-12-30T05:15:02.616Z,8.60
2018-12-30T05:17:32.995Z,7.57
2018-12-30T05:20:03.947Z,8.40
2018-12-30T05:22:34.306Z,7.30
2018-12-30T05:25:04.589Z,5.93
2018-12-30T05:27:34.981Z,7.17
2018-12-30T05:30:06.312Z,6.87
2018-12-30T05:32:36.607Z,7.23
2018-12-30T05:35:07.150Z,6.53
2018-12-30T05:37:37.545Z,7.07
2018-12-30T05:40:08.302Z,7.20
2018-12-30T05:42:38.864Z,7.73
2018-12-30T05:45:09.183Z,7.97
2018-12-30T05:47:39.876Z,7.60
2018-12-30T05:50:10.654Z,9.00
2018-12-30T05:52:42.093Z,8.63
2018-12-30T05:55:12.537Z,9.17
2018-12-30T05:57:43.362Z,9.10
2018-12-30T06:00:13.828Z,9.70
2018-12-30T06:02:44.131Z,9.37
2018-12-30T06:05:14.611Z,9.70
2018-12-30T06:07:45.436Z,10.27
2018-12-30T06:10:16.107Z,10.97
2018-12-30T06:12:46.428Z,11.80
2018-12-30T06:15:16.720Z,10.47
2018-12-30T06:17:47.421Z,11.47
2018-12-30T06:20:17.698Z,11.27
2018-12-30T06:22:49.724Z,10.20
2018-12-30T06:25:20.646Z,11.13
2018-12-30T06:27:50.977Z,9.77
2018-12-30T06:30:21.279Z,8.10
2018-12-30T06:32:51.994Z,10.60
2018-12-30T06:35:22.769Z,10.87
2018-12-30T06:37:53.149Z,10.83
2018-12-30T06:40:24.421Z,11.53
2018-12-30T06:42:54.761Z,9.30
2018-12-30T06:45:25.197Z,10.93
2018-12-30T06:47:55.477Z,12.17
2018-12-30T06:50:25.780Z,10.27
2018-12-30T06:52:57.742Z,11.23
2018-12-30T06:55:28.366Z,13.70
2018-12-30T06:57:58.763Z,13.57
2018-12-30T07:00:29.503Z,8.63
2018-12-30T07:02:59.979Z,8.57
2018-12-30T07:05:30.306Z,9.53
2018-12-30T07:08:00.949Z,9.33
2018-12-30T07:10:31.696Z,10.33
2018-12-30T07:13:01.967Z,11.47
2018-12-30T07:15:32.321Z,10.37
2018-12-30T07:18:02.732Z,11.33
2018-12-30T07:20:33.030Z,11.53
2018-12-30T07:23:05.949Z,8.53
2018-12-30T07:25:35.766Z,8.97
2018-12-30T07:28:06.046Z,8.50
2018-12-30T07:30:36.353Z,11.07
2018-12-30T07:33:06.955Z,9.00
2018-12-30T07:35:37.793Z,10.07
2018-12-30T07:38:08.085Z,11.00
2018-12-30T07:40:38.771Z,12.73
2018-12-30T07:43:09.065Z,13.77
2018-12-30T07:45:39.897Z,12.57
2018-12-30T07:48:10.171Z,14.27
2018-12-30T07:50:40.849Z,16.87
2018-12-30T07:53:13.924Z,14.67
2018-12-30T07:55:44.258Z,16.53
2018-12-30T07:58:14.546Z,14.77
2018-12-30T08:00:45.285Z,14.60
2018-12-30T08:03:15.912Z,16.00
2018-12-30T08:05:46.259Z,13.40
2018-12-30T08:08:17.005Z,13.53
2018-12-30T08:10:47.990Z,13.07
2018-12-30T08:13:18.271Z,10.43
2018-12-30T08:15:49.111Z,10.27
2018-12-30T08:18:19.420Z,8.43
2018-12-30T08:20:50.073Z,8.30
2018-12-30T08:23:21.813Z,8.40
2018-12-30T08:25:52.984Z,9.70
2018-12-30T08:28:25.211Z,10.83
2018-12-30T08:30:56.594Z,10.97
2018-12-30T08:33:26.941Z,8.57
2018-12-30T08:35:57.701Z,8.13
2018-12-30T08:38:28.312Z,9.07
2018-12-30T08:40:58.991Z,7.80
2018-12-30T08:43:29.277Z,7.13
2018-12-30T08:45:59.945Z,7.27
2018-12-30T08:48:30.933Z,7.93
2018-12-30T08:51:01.331Z,8.40
2018-12-30T08:53:31.632Z,8.50
2018-12-30T08:56:02.727Z,9.83
2018-12-30T08:58:33.488Z,12.03
2018-12-30T09:01:04.084Z,9.90
2018-12-30T09:03:34.374Z,9.77
2018-12-30T09:06:05.108Z,10.33
2018-12-30T09:08:35.488Z,9.13
2018-12-30T09:11:06.827Z,9.03
2018-12-30T09:13:37.485Z,9.47
2018-12-30T09:16:07.875Z,8.63
2018-12-30T09:18:38.245Z,11.13
2018-12-30T09:21:08.829Z,9.70
2018-12-30T09:23:39.151Z,11.30
2018-12-30T09:26:10.089Z,9.80
2018-12-30T09:28:40.647Z,10.60
2018-12-30T09:31:11.151Z,9.07
2018-12-30T09:33:41.825Z,8.07
2018-12-30T09:36:12.450Z,10.10
2018-12-30T09:38:43.798Z,14.07
2018-12-30T09:41:14.955Z,11.63
2018-12-30T09:43:45.302Z,10.87
2018-12-30T09:46:15.871Z,11.03
2018-12-30T09:48:46.247Z,10.97
2018-12-30T09:51:16.833Z,8.43
2018-12-30T09:53:47.567Z,6.63
2018-12-30T09:56:18.113Z,6.80
2018-12-30T09:58:48.388Z,8.73
2018-12-30T10:01:19.018Z,8.57
2018-12-30T10:03:49.710Z,7.50
2018-12-30T10:06:20.033Z,8.93
2018-12-30T10:08:50.777Z,9.40
2018-12-30T10:11:21.640Z,8.83
2018-12-30T10:13:52.232Z,9.30
2018-12-30T10:16:23.225Z,8.60
2018-12-30T10:18:54.254Z,7.00
2018-12-30T10:21:24.827Z,6.20
2018-12-30T10:23:55.476Z,8.00
2018-12-30T10:26:26.080Z,9.03
2018-12-30T10:28:56.763Z,10.57
2018-12-30T10:31:27.976Z,7.93
2018-12-30T10:33:58.252Z,7.57
2018-12-30T10:36:28.994Z,7.70
2018-12-30T10:38:59.585Z,8.00
2018-12-30T10:41:30.290Z,7.90
2018-12-30T10:44:00.560Z,9.10
2018-12-30T10:46:31.025Z,8.37
2018-12-30T10:49:01.304Z,8.77
2018-12-30T10:51:31.678Z,9.90
2018-12-30T10:54:02.343Z,8.30
2018-12-30T10:56:32.797Z,8.53
2018-12-30T10:59:03.608Z,10.07
2018-12-30T11:01:33.890Z,10.03
2018-12-30T11:04:04.454Z,9.17
2018-12-30T11:06:35.108Z,7.77
2018-12-30T11:09:08.168Z,7.10
2018-12-30T11:11:38.476Z,9.53
2018-12-30T11:14:09.114Z,10.57
2018-12-30T11:16:39.451Z,11.60
2018-12-30T11:19:09.797Z,8.50
2018-12-30T11:21:41.465Z,8.47
2018-12-30T11:24:12.087Z,10.03
2018-12-30T11:26:42.679Z,9.10
2018-12-30T11:29:13.452Z,9.47
2018-12-30T11:31:44.127Z,8.50
2018-12-30T11:34:14.769Z,10.17
2018-12-30T11:36:45.250Z,11.10
2018-12-30T11:39:16.064Z,11.13
2018-12-30T11:41:46.320Z,10.83
2018-12-30T11:44:16.628Z,17.43
2018-12-30T11:46:47.068Z,15.47
2018-12-30T11:49:17.448Z,12.03
2018-12-30T11:51:47.789Z,9.07
2018-12-30T11:54:18.657Z,11.97
2018-12-30T11:56:49.145Z,11.57
2018-12-30T11:59:19.720Z,11.97
2018-12-30T12:01:50.043Z,10.63
2018-12-30T12:04:20.344Z,12.80
2018-12-30T12:06:51.009Z,9.53
2018-12-30T12:09:21.285Z,12.20
2018-12-30T12:11:51.567Z,10.43
2018-12-30T12:14:22.038Z,10.53
2018-12-30T12:16:52.426Z,11.03
2018-12-30T12:19:22.918Z,12.47
2018-12-30T12:21:53.570Z,17.57
2018-12-30T12:24:24.719Z,14.60
2018-12-30T12:26:55.106Z,10.47
2018-12-30T12:29:26.963Z,10.63
2018-12-30T12:31:57.237Z,22.43
2018-12-30T12:34:28.233Z,24.57
2018-12-30T12:36:58.800Z,12.33
2018-12-30T12:39:29.297Z,12.20
2018-12-30T12:42:00.064Z,17.23
2018-12-30T12:44:30.429Z,13.10
2018-12-30T12:47:00.989Z,13.23
2018-12-30T12:49:31.760Z,14.20
2018-12-30T12:52:02.395Z,12.17
2018-12-30T12:54:32.697Z,20.40
2018-12-30T12:57:03.055Z,14.67
2018-12-30T12:59:33.684Z,13.83
2018-12-30T13:02:04.067Z,24.30
2018-12-30T13:04:34.819Z,25.20
2018-12-30T13:07:05.211Z,15.27
2018-12-30T13:09:35.848Z,14.80
2018-12-30T13:12:06.232Z,12.13
2018-12-30T13:14:36.498Z,13.97
2018-12-30T13:17:07.253Z,18.40
2018-12-30T13:19:37.910Z,17.00
2018-12-30T13:22:08.181Z,31.73
2018-12-30T13:24:40.013Z,26.73
2018-12-30T13:27:11.037Z,22.07
2018-12-30T13:29:41.423Z,54.47
2018-12-30T13:32:12.060Z,28.80
2018-12-30T13:34:42.713Z,40.27
2018-12-30T13:37:13.250Z,47.77
2018-12-30T13:39:44.070Z,32.47
2018-12-30T13:42:14.323Z,29.20
2018-12-30T13:44:44.654Z,18.30
2018-12-30T13:47:15.363Z,36.07
2018-12-30T13:49:45.694Z,16.23
2018-12-30T13:52:16.166Z,13.77
2018-12-30T13:54:47.813Z,9.23
2018-12-30T13:57:18.891Z,11.90
2018-12-30T13:59:49.160Z,15.90
2018-12-30T14:02:20.163Z,16.00
2018-12-30T14:04:50.808Z,13.20
2018-12-30T14:07:21.497Z,10.73
2018-12-30T14:09:51.796Z,12.53
2018-12-30T14:12:22.269Z,12.60
2018-12-30T14:14:52.674Z,12.00
2018-12-30T14:17:23.232Z,12.27
2018-12-30T14:19:53.975Z,18.57
2018-12-30T14:22:24.734Z,13.17
2018-12-30T14:24:55.735Z,20.53
2018-12-30T14:27:26.491Z,15.03
2018-12-30T14:29:57.162Z,12.00
2018-12-30T14:32:27.759Z,13.70
2018-12-30T14:34:58.472Z,33.83
2018-12-30T14:37:28.948Z,26.83
2018-12-30T14:39:59.281Z,24.17
2018-12-30T14:42:29.635Z,26.07
2018-12-30T14:45:00.299Z,23.57
2018-12-30T14:47:30.583Z,14.50
2018-12-30T14:50:01.579Z,14.93
2018-12-30T14:52:32.265Z,11.50
2018-12-30T14:55:03.856Z,11.83
2018-12-30T14:57:34.621Z,11.43
2018-12-30T15:00:05.684Z,13.37
2018-12-30T15:02:36.000Z,10.40
2018-12-30T15:05:06.379Z,12.00
2018-12-30T15:07:37.129Z,12.00
2018-12-30T15:10:07.412Z,12.80
2018-12-30T15:12:37.801Z,13.03
2018-12-30T15:15:08.085Z,12.53
2018-12-30T15:17:38.508Z,12.47
2018-12-30T15:20:09.079Z,14.47
2018-12-30T15:22:39.543Z,13.93
2018-12-30T15:25:11.927Z,14.47
2018-12-30T15:27:42.304Z,15.80
2018-12-30T15:30:13.565Z,15.67
2018-12-30T15:32:44.115Z,21.30
2018-12-30T15:35:14.789Z,18.57
2018-12-30T15:37:45.303Z,18.63
2018-12-30T15:40:15.657Z,14.57
2018-12-30T15:42:46.094Z,14.97
2018-12-30T15:45:16.779Z,14.60
2018-12-30T15:47:47.080Z,17.37
2018-12-30T15:50:19.479Z,16.27
2018-12-30T15:52:51.325Z,20.50
2018-12-30T15:55:21.674Z,27.23
2018-12-30T15:57:52.062Z,25.67
2018-12-30T16:00:22.723Z,21.63
2018-12-30T16:02:53.047Z,23.07
2018-12-30T16:05:23.340Z,23.60
2018-12-30T16:07:53.995Z,23.20
2018-12-30T16:10:24.315Z,23.10
2018-12-30T16:12:54.629Z,24.83
2018-12-30T16:15:25.231Z,27.77
2018-12-30T16:17:55.609Z,25.90
2018-12-30T16:20:26.305Z,23.60
2018-12-30T16:22:56.642Z,25.20
2018-12-30T16:25:27.485Z,23.43
2018-12-30T16:27:58.342Z,25.33
2018-12-30T16:30:28.602Z,26.20
2018-12-30T16:32:58.945Z,24.97
2018-12-30T16:35:29.601Z,25.13
2018-12-30T16:37:59.955Z,31.23
2018-12-30T16:40:30.231Z,27.10
2018-12-30T16:43:00.649Z,25.10
2018-12-30T16:45:31.300Z,24.30
2018-12-30T16:48:01.762Z,22.53
2018-12-30T16:50:32.138Z,23.77
2018-12-30T16:53:02.475Z,22.80
2018-12-30T16:55:35.029Z,23.80
2018-12-30T16:58:05.376Z,26.70
2018-12-30T17:00:35.876Z,24.00
2018-12-30T17:03:06.581Z,24.43
2018-12-30T17:05:37.118Z,25.63
2018-12-30T17:08:07.401Z,28.23
2018-12-30T17:10:37.823Z,29.03
2018-12-30T17:13:08.483Z,32.30
2018-12-30T17:15:38.841Z,32.63
2018-12-30T17:18:09.310Z,28.60
2018-12-30T17:20:39.628Z,30.53
2018-12-30T17:23:10.433Z,31.03
2018-12-30T17:25:43.230Z,28.63
2018-12-30T17:28:13.052Z,32.33
2018-12-30T17:30:43.637Z,33.10
2018-12-30T17:33:14.038Z,33.90
2018-12-30T17:35:46.192Z,26.87
2018-12-30T17:38:17.356Z,29.47
2018-12-30T17:40:47.772Z,32.23
2018-12-30T17:43:18.157Z,34.37
2018-12-30T17:45:48.527Z,39.90
2018-12-30T17:48:19.199Z,40.73
2018-12-30T17:50:49.520Z,38.30
2018-12-30T17:53:19.850Z,39.40
2018-12-30T17:55:51.009Z,42.27
2018-12-30T17:58:21.675Z,41.43
2018-12-30T18:00:51.954Z,45.37
2018-12-30T18:03:22.488Z,30.57
2018-12-30T18:05:52.900Z,38.00
2018-12-30T18:08:23.158Z,33.77
2018-12-30T18:10:53.534Z,34.27
2018-12-30T18:13:24.349Z,51.50
2018-12-30T18:15:54.573Z,27.57
2018-12-30T18:18:24.901Z,27.13
2018-12-30T18:20:55.465Z,38.07
2018-12-30T18:23:25.747Z,27.30
2018-12-30T18:25:58.768Z,27.17
2018-12-30T18:28:28.428Z,29.70
2018-12-30T18:30:59.102Z,29.03
2018-12-30T18:33:29.775Z,34.07
2018-12-30T18:36:00.239Z,40.17
2018-12-30T18:38:30.778Z,29.87
2018-12-30T18:41:01.435Z,24.33
2018-12-30T18:43:31.751Z,25.40
2018-12-30T18:46:02.092Z,25.23
2018-12-30T18:48:32.964Z,42.73
2018-12-30T18:51:03.396Z,40.30
2018-12-30T18:53:34.147Z,46.07
2018-12-30T18:56:06.947Z,60.80
2018-12-30T18:58:37.140Z,29.57
2018-12-30T19:01:07.833Z,21.73
2018-12-30T19:03:38.115Z,22.00
2018-12-30T19:06:08.773Z,25.90
2018-12-30T19:08:39.397Z,30.83
2018-12-30T19:11:09.674Z,29.70
2018-12-30T19:13:40.316Z,31.50
2018-12-30T19:16:10.893Z,29.00
2018-12-30T19:18:41.524Z,34.87
2018-12-30T19:21:12.118Z,26.57
2018-12-30T19:23:42.606Z,29.80
2018-12-30T19:26:14.399Z,22.87
2018-12-30T19:28:45.047Z,21.03
2018-12-30T19:31:15.462Z,28.13
2018-12-30T19:33:45.761Z,25.23
2018-12-30T19:36:16.746Z,22.07
2018-12-30T19:38:47.289Z,19.13
2018-12-30T19:41:17.676Z,15.10
2018-12-30T19:43:48.829Z,14.67
2018-12-30T19:46:19.577Z,14.23
2018-12-30T19:48:50.203Z,12.67
2018-12-30T19:51:21.066Z,11.13
2018-12-30T19:53:51.734Z,12.23
2018-12-30T19:56:22.314Z,11.33
2018-12-30T19:58:53.011Z,10.23
2018-12-30T20:01:23.789Z,10.17
2018-12-30T20:03:55.325Z,10.43
2018-12-30T20:06:26.069Z,14.00
2018-12-30T20:08:56.557Z,15.00
2018-12-30T20:11:26.812Z,13.97
2018-12-30T20:13:57.458Z,15.17
2018-12-30T20:16:28.160Z,15.27
2018-12-30T20:18:58.589Z,16.77
2018-12-30T20:21:29.133Z,18.67
2018-12-30T20:23:59.697Z,15.80
2018-12-30T20:26:30.397Z,12.93
2018-12-30T20:29:00.924Z,17.90
2018-12-30T20:31:32.622Z,14.60
2018-12-30T20:34:02.898Z,12.30
2018-12-30T20:36:33.350Z,12.77
2018-12-30T20:39:04.497Z,12.73
2018-12-30T20:41:35.115Z,11.10
2018-12-30T20:44:05.834Z,11.50
2018-12-30T20:46:36.790Z,11.83
2018-12-30T20:49:07.072Z,11.73
2018-12-30T20:51:37.601Z,12.17
2018-12-30T20:54:08.503Z,12.00
2018-12-30T20:56:38.874Z,12.17
2018-12-30T20:59:09.282Z,12.33
2018-12-30T21:01:39.909Z,11.33
2018-12-30T21:04:10.181Z,12.37
2018-12-30T21:06:40.851Z,12.73
2018-12-30T21:09:11.235Z,11.60
2018-12-30T21:11:41.852Z,11.60
2018-12-30T21:14:12.562Z,11.87
2018-12-30T21:16:43.159Z,11.27
2018-12-30T21:19:13.729Z,11.10
2018-12-30T21:21:44.638Z,11.43
2018-12-30T21:24:14.918Z,9.27
2018-12-30T21:26:45.729Z,11.67
2018-12-30T21:29:16.243Z,11.60
2018-12-30T21:31:46.574Z,11.50
2018-12-30T21:34:16.884Z,10.20
2018-12-30T21:36:47.664Z,11.30
2018-12-30T21:39:18.044Z,9.23
2018-12-30T21:41:48.715Z,9.63
2018-12-30T21:44:19.008Z,10.20
2018-12-30T21:46:49.364Z,10.90
2018-12-30T21:49:20.070Z,11.67
2018-12-30T21:51:50.661Z,11.70
2018-12-30T21:54:21.087Z,12.30
2018-12-30T21:56:54.918Z,12.97
2018-12-30T21:59:24.185Z,14.50
2018-12-30T22:01:54.732Z,12.37
2018-12-30T22:04:25.296Z,11.73
2018-12-30T22:06:55.975Z,12.43
2018-12-30T22:09:26.356Z,11.43
2018-12-30T22:11:56.693Z,12.47
2018-12-30T22:14:26.986Z,10.60
2018-12-30T22:16:57.922Z,9.13
2018-12-30T22:19:28.348Z,11.50
2018-12-30T22:21:58.937Z,10.37
2018-12-30T22:24:29.536Z,10.63
2018-12-30T22:27:00.752Z,11.73
2018-12-30T22:29:31.098Z,12.50
2018-12-30T22:32:02.009Z,10.67
2018-12-30T22:34:32.403Z,9.93
2018-12-30T22:37:02.668Z,12.07
2018-12-30T22:39:33.296Z,12.13
2018-12-30T22:42:04.767Z,10.93
2018-12-30T22:44:35.321Z,12.17
2018-12-30T22:47:06.233Z,11.50
2018-12-30T22:49:36.854Z,12.73
2018-12-30T22:52:07.620Z,10.00
2018-12-30T22:54:38.510Z,11.03
2018-12-30T22:57:08.830Z,9.37
2018-12-30T22:59:39.341Z,11.27
2018-12-30T23:02:10.557Z,11.57
2018-12-30T23:04:40.894Z,9.90
2018-12-30T23:07:11.329Z,10.57
2018-12-30T23:09:41.951Z,11.77
2018-12-30T23:12:12.553Z,10.87
2018-12-30T23:14:43.407Z,12.83
2018-12-30T23:17:13.919Z,10.03
2018-12-30T23:19:44.391Z,8.53
2018-12-30T23:22:15.027Z,11.17
2018-12-30T23:24:45.331Z,10.17
2018-12-30T23:27:15.683Z,10.30
2018-12-30T23:29:46.087Z,9.93
2018-12-30T23:32:16.501Z,10.00
2018-12-30T23:34:46.794Z,10.63
2018-12-30T23:37:17.749Z,11.37
2018-12-30T23:39:48.280Z,11.13
2018-12-30T23:42:18.695Z,12.37
2018-12-30T23:44:49.272Z,11.30
2018-12-30T23:47:19.852Z,12.27
2018-12-30T23:49:50.422Z,13.13
2018-12-30T23:52:20.725Z,13.00
2018-12-30T23:54:51.280Z,13.83
2018-12-30T23:57:22.167Z,14.97
2018-12-30T23:59:52.898Z,14.03
